Weston, Wisconsin
Current Conditions -  °F | °C
As of 4:54 AM on Monday 22 Dec 2014 (Local Time) from KAUW Reporting Station
Haze Haze  
Wind Chill: 26°   Ceiling: 900
Heat Index: 33°   Visibility: 5mi
Dew Point: 31°   Wind: 8mph
Humidity: 92%   Direction: 150°SSE
Pressure: 29.82"   Gusts: NA
Location:  44.8809°N, 89.6196°W
Report Text: KAUW 221054Z AUTO 15007KT 5SM BR OVC009 01/M01 A2982 RMK AO2 SLP117 T00061006
Loading
Personal Weather Stations






























Interactive Weather Map New forecast layout! Learn more

10-Day Weather Forecast

Advertisements
Track Severe Weather on mobile